Aviation Digital Data Service (ADDS)

Output produced by METARs form (1443 UTC 28 August 2015)
found at http://aviationweather.gov/adds/metars/
 
KCRG 281120Z 2812/2912 09004KT P6SM SCT020 BKN200 
     FM281400 06006KT P6SM VCSH SCT025 BKN040 
     FM281600 08010G15KT P6SM VCTS SCT025 BKN040CB 
     FM282200 06006KT P6SM VCSH SCT025 BKN040